sensor_id;sensor_type;location;lat;lon;timestamp;P1;durP1;ratioP1;P2;durP2;ratioP2
33902;SDS011;20194;50.950;5.346;2022-10-31T00:00:53;38.10;;;18.35;;
33902;SDS011;20194;50.950;5.346;2022-10-31T00:03:19;40.15;;;19.50;;
33902;SDS011;20194;50.950;5.346;2022-10-31T00:05:46;36.97;;;18.67;;
33902;SDS011;20194;50.950;5.346;2022-10-31T00:08:13;32.78;;;18.38;;
33902;SDS011;20194;50.950;5.346;2022-10-31T00:10:40;38.15;;;18.42;;
33902;SDS011;20194;50.950;5.346;2022-10-31T00:13:06;32.28;;;18.13;;
33902;SDS011;20194;50.950;5.346;2022-10-31T00:15:34;32.35;;;17.58;;
33902;SDS011;20194;50.950;5.346;2022-10-31T00:18:01;33.80;;;18.10;;
33902;SDS011;20194;50.950;5.346;2022-10-31T00:20:28;38.95;;;19.83;;
33902;SDS011;20194;50.950;5.346;2022-10-31T00:22:56;35.92;;;16.80;;
33902;SDS011;20194;50.950;5.346;2022-10-31T00:25:23;38.30;;;16.88;;
33902;SDS011;20194;50.950;5.346;2022-10-31T00:27:49;29.77;;;16.15;;
33902;SDS011;20194;50.950;5.346;2022-10-31T00:30:14;33.20;;;15.48;;
33902;SDS011;20194;50.950;5.346;2022-10-31T00:32:40;31.58;;;16.13;;
33902;SDS011;20194;50.950;5.346;2022-10-31T00:35:06;28.80;;;15.57;;
33902;SDS011;20194;50.950;5.346;2022-10-31T00:37:32;35.97;;;15.52;;
33902;SDS011;20194;50.950;5.346;2022-10-31T00:39:58;30.48;;;15.77;;
33902;SDS011;20194;50.950;5.346;2022-10-31T00:42:23;30.20;;;15.02;;
33902;SDS011;20194;50.950;5.346;2022-10-31T00:44:49;35.05;;;16.40;;
33902;SDS011;20194;50.950;5.346;2022-10-31T00:47:15;34.65;;;16.10;;
33902;SDS011;20194;50.950;5.346;2022-10-31T00:49:40;29.80;;;15.45;;
33902;SDS011;20194;50.950;5.346;2022-10-31T00:52:06;29.80;;;16.00;;
33902;SDS011;20194;50.950;5.346;2022-10-31T00:54:32;30.35;;;16.23;;
33902;SDS011;20194;50.950;5.346;2022-10-31T00:56:58;31.15;;;16.00;;
33902;SDS011;20194;50.950;5.346;2022-10-31T00:59:23;30.33;;;15.98;;
33902;SDS011;20194;50.950;5.346;2022-10-31T01:01:49;30.02;;;16.27;;
33902;SDS011;20194;50.950;5.346;2022-10-31T01:04:15;29.85;;;16.80;;
33902;SDS011;20194;50.950;5.346;2022-10-31T01:06:40;28.52;;;16.58;;
33902;SDS011;20194;50.950;5.346;2022-10-31T01:09:07;34.08;;;16.50;;
33902;SDS011;20194;50.950;5.346;2022-10-31T01:11:33;34.30;;;16.15;;
33902;SDS011;20194;50.950;5.346;2022-10-31T01:13:58;33.72;;;16.30;;
33902;SDS011;20194;50.950;5.346;2022-10-31T01:16:25;28.83;;;15.45;;
33902;SDS011;20194;50.950;5.346;2022-10-31T01:18:52;34.95;;;17.00;;
33902;SDS011;20194;50.950;5.346;2022-10-31T01:21:21;35.05;;;16.52;;
33902;SDS011;20194;50.950;5.346;2022-10-31T01:23:49;33.72;;;17.38;;
33902;SDS011;20194;50.950;5.346;2022-10-31T01:26:17;40.90;;;17.98;;
33902;SDS011;20194;50.950;5.346;2022-10-31T01:28:51;32.33;;;16.60;;
33902;SDS011;20194;50.950;5.346;2022-10-31T01:31:19;31.23;;;16.52;;
33902;SDS011;20194;50.950;5.346;2022-10-31T01:33:47;32.58;;;16.35;;
33902;SDS011;20194;50.950;5.346;2022-10-31T01:36:26;34.90;;;16.52;;
33902;SDS011;20194;50.950;5.346;2022-10-31T01:38:55;32.22;;;15.57;;
33902;SDS011;20194;50.950;5.346;2022-10-31T01:41:23;30.20;;;15.80;;
33902;SDS011;20194;50.950;5.346;2022-10-31T01:46:31;37.65;;;15.90;;
33902;SDS011;20194;50.950;5.346;2022-10-31T01:49:00;33.50;;;16.10;;
33902;SDS011;20194;50.950;5.346;2022-10-31T01:51:30;28.50;;;16.33;;
33902;SDS011;20194;50.950;5.346;2022-10-31T01:54:02;30.73;;;14.80;;
33902;SDS011;20194;50.950;5.346;2022-10-31T01:56:31;28.05;;;15.77;;
33902;SDS011;20194;50.950;5.346;2022-10-31T01:59:00;33.95;;;16.13;;
33902;SDS011;20194;50.950;5.346;2022-10-31T02:01:28;34.80;;;17.08;;
33902;SDS011;20194;50.950;5.346;2022-10-31T02:03:54;31.65;;;15.15;;
33902;SDS011;20194;50.950;5.346;2022-10-31T02:06:36;28.77;;;15.07;;
33902;SDS011;20194;50.950;5.346;2022-10-31T02:09:05;32.20;;;15.32;;
33902;SDS011;20194;50.950;5.346;2022-10-31T02:11:31;32.60;;;15.40;;
33902;SDS011;20194;50.950;5.346;2022-10-31T02:13:59;24.15;;;14.05;;
33902;SDS011;20194;50.950;5.346;2022-10-31T02:16:27;32.08;;;14.60;;
33902;SDS011;20194;50.950;5.346;2022-10-31T02:18:53;27.55;;;15.65;;
33902;SDS011;20194;50.950;5.346;2022-10-31T02:21:24;31.35;;;15.90;;
33902;SDS011;20194;50.950;5.346;2022-10-31T02:38:25;29.80;;;14.90;;
33902;SDS011;20194;50.950;5.346;2022-10-31T02:52:39;28.38;;;15.80;;
33902;SDS011;20194;50.950;5.346;2022-10-31T02:57:53;29.60;;;15.45;;
33902;SDS011;20194;50.950;5.346;2022-10-31T03:00:21;23.27;;;14.65;;
33902;SDS011;20194;50.950;5.346;2022-10-31T03:05:40;22.17;;;12.35;;
33902;SDS011;20194;50.950;5.346;2022-10-31T03:11:00;30.58;;;14.40;;
33902;SDS011;20194;50.950;5.346;2022-10-31T03:13:35;26.50;;;15.05;;
33902;SDS011;20194;50.950;5.346;2022-10-31T03:16:20;34.83;;;16.30;;
33902;SDS011;20194;50.950;5.346;2022-10-31T03:18:53;27.08;;;15.50;;
33902;SDS011;20194;50.950;5.346;2022-10-31T03:21:30;30.58;;;14.88;;
33902;SDS011;20194;50.950;5.346;2022-10-31T03:24:05;27.30;;;15.10;;
33902;SDS011;20194;50.950;5.346;2022-10-31T03:26:34;27.80;;;16.30;;
33902;SDS011;20194;50.950;5.346;2022-10-31T03:29:05;26.30;;;15.40;;
33902;SDS011;20194;50.950;5.346;2022-10-31T03:31:37;28.92;;;14.63;;
33902;SDS011;20194;50.950;5.346;2022-10-31T03:34:08;34.72;;;17.10;;
33902;SDS011;20194;50.950;5.346;2022-10-31T03:36:37;31.35;;;16.67;;
33902;SDS011;20194;50.950;5.346;2022-10-31T03:39:05;31.17;;;15.63;;
33902;SDS011;20194;50.950;5.346;2022-10-31T03:41:38;34.85;;;16.58;;
33902;SDS011;20194;50.950;5.346;2022-10-31T03:44:16;31.42;;;16.00;;
33902;SDS011;20194;50.950;5.346;2022-10-31T03:46:45;33.58;;;15.63;;
33902;SDS011;20194;50.950;5.346;2022-10-31T03:49:11;29.02;;;15.95;;
33902;SDS011;20194;50.950;5.346;2022-10-31T03:56:50;28.88;;;14.93;;
33902;SDS011;20194;50.950;5.346;2022-10-31T03:59:30;26.52;;;14.95;;
33902;SDS011;20194;50.950;5.346;2022-10-31T04:02:02;30.50;;;15.95;;
33902;SDS011;20194;50.950;5.346;2022-10-31T04:04:31;28.65;;;15.68;;
33902;SDS011;20194;50.950;5.346;2022-10-31T04:06:59;29.83;;;14.88;;
33902;SDS011;20194;50.950;5.346;2022-10-31T04:09:26;29.45;;;14.32;;
33902;SDS011;20194;50.950;5.346;2022-10-31T04:11:55;31.55;;;15.55;;
33902;SDS011;20194;50.950;5.346;2022-10-31T04:14:25;28.35;;;15.07;;
33902;SDS011;20194;50.950;5.346;2022-10-31T04:16:52;29.92;;;15.70;;
33902;SDS011;20194;50.950;5.346;2022-10-31T04:19:19;27.77;;;15.48;;
33902;SDS011;20194;50.950;5.346;2022-10-31T04:21:44;29.10;;;15.48;;
33902;SDS011;20194;50.950;5.346;2022-10-31T04:24:10;26.52;;;16.08;;
33902;SDS011;20194;50.950;5.346;2022-10-31T04:26:36;30.75;;;15.23;;
33902;SDS011;20194;50.950;5.346;2022-10-31T04:29:02;26.58;;;14.35;;
33902;SDS011;20194;50.950;5.346;2022-10-31T04:31:28;33.38;;;15.75;;
33902;SDS011;20194;50.950;5.346;2022-10-31T04:33:53;30.70;;;14.73;;
33902;SDS011;20194;50.950;5.346;2022-10-31T04:36:20;31.52;;;16.30;;
33902;SDS011;20194;50.950;5.346;2022-10-31T04:38:45;33.20;;;15.95;;
33902;SDS011;20194;50.950;5.346;2022-10-31T04:41:11;32.45;;;16.17;;
33902;SDS011;20194;50.950;5.346;2022-10-31T04:43:36;29.55;;;16.30;;
33902;SDS011;20194;50.950;5.346;2022-10-31T04:46:02;30.30;;;15.65;;
33902;SDS011;20194;50.950;5.346;2022-10-31T04:48:28;34.65;;;16.65;;
33902;SDS011;20194;50.950;5.346;2022-10-31T04:50:58;31.40;;;16.52;;
33902;SDS011;20194;50.950;5.346;2022-10-31T04:53:27;34.55;;;14.85;;
33902;SDS011;20194;50.950;5.346;2022-10-31T04:55:53;27.75;;;14.80;;
33902;SDS011;20194;50.950;5.346;2022-10-31T04:58:19;31.27;;;16.00;;
33902;SDS011;20194;50.950;5.346;2022-10-31T05:00:44;32.67;;;15.40;;
33902;SDS011;20194;50.950;5.346;2022-10-31T05:03:10;34.05;;;15.73;;
33902;SDS011;20194;50.950;5.346;2022-10-31T05:05:36;31.35;;;15.23;;
33902;SDS011;20194;50.950;5.346;2022-10-31T05:08:02;27.60;;;15.27;;
33902;SDS011;20194;50.950;5.346;2022-10-31T05:10:29;30.92;;;15.13;;
33902;SDS011;20194;50.950;5.346;2022-10-31T05:12:56;26.05;;;14.10;;
33902;SDS011;20194;50.950;5.346;2022-10-31T05:15:24;29.70;;;15.70;;
33902;SDS011;20194;50.950;5.346;2022-10-31T05:17:51;29.45;;;14.38;;
33902;SDS011;20194;50.950;5.346;2022-10-31T05:20:18;28.10;;;15.05;;
33902;SDS011;20194;50.950;5.346;2022-10-31T05:22:49;26.60;;;14.95;;
33902;SDS011;20194;50.950;5.346;2022-10-31T05:25:17;28.63;;;15.55;;
33902;SDS011;20194;50.950;5.346;2022-10-31T05:27:45;32.03;;;16.23;;
33902;SDS011;20194;50.950;5.346;2022-10-31T05:30:12;30.92;;;15.50;;
33902;SDS011;20194;50.950;5.346;2022-10-31T05:32:43;31.60;;;14.73;;
33902;SDS011;20194;50.950;5.346;2022-10-31T05:35:12;29.17;;;14.18;;
33902;SDS011;20194;50.950;5.346;2022-10-31T05:37:39;40.95;;;15.48;;
33902;SDS011;20194;50.950;5.346;2022-10-31T05:40:06;30.70;;;15.50;;
33902;SDS011;20194;50.950;5.346;2022-10-31T05:42:33;37.13;;;15.48;;
33902;SDS011;20194;50.950;5.346;2022-10-31T05:44:59;29.15;;;15.40;;
33902;SDS011;20194;50.950;5.346;2022-10-31T05:47:25;31.77;;;15.77;;
33902;SDS011;20194;50.950;5.346;2022-10-31T05:49:50;32.22;;;15.55;;
33902;SDS011;20194;50.950;5.346;2022-10-31T05:52:16;31.48;;;15.77;;
33902;SDS011;20194;50.950;5.346;2022-10-31T05:54:42;33.67;;;14.68;;
33902;SDS011;20194;50.950;5.346;2022-10-31T05:57:09;33.97;;;14.32;;
33902;SDS011;20194;50.950;5.346;2022-10-31T05:59:34;28.90;;;14.73;;
33902;SDS011;20194;50.950;5.346;2022-10-31T06:02:00;25.70;;;14.98;;
33902;SDS011;20194;50.950;5.346;2022-10-31T06:04:26;28.75;;;14.40;;
33902;SDS011;20194;50.950;5.346;2022-10-31T06:06:51;24.70;;;14.15;;
33902;SDS011;20194;50.950;5.346;2022-10-31T06:09:17;30.55;;;14.85;;
33902;SDS011;20194;50.950;5.346;2022-10-31T06:11:43;32.30;;;14.02;;
33902;SDS011;20194;50.950;5.346;2022-10-31T06:14:08;33.22;;;14.40;;
33902;SDS011;20194;50.950;5.346;2022-10-31T06:16:34;30.33;;;14.48;;
33902;SDS011;20194;50.950;5.346;2022-10-31T06:18:59;31.08;;;13.13;;
33902;SDS011;20194;50.950;5.346;2022-10-31T06:21:25;27.17;;;13.35;;
33902;SDS011;20194;50.950;5.346;2022-10-31T06:23:51;24.75;;;13.35;;
33902;SDS011;20194;50.950;5.346;2022-10-31T06:26:17;31.33;;;14.35;;
33902;SDS011;20194;50.950;5.346;2022-10-31T06:28:42;24.92;;;12.95;;
33902;SDS011;20194;50.950;5.346;2022-10-31T06:31:08;22.70;;;12.55;;
33902;SDS011;20194;50.950;5.346;2022-10-31T06:33:34;26.42;;;13.13;;
33902;SDS011;20194;50.950;5.346;2022-10-31T06:36:00;32.08;;;13.23;;
33902;SDS011;20194;50.950;5.346;2022-10-31T06:38:26;29.85;;;13.32;;
33902;SDS011;20194;50.950;5.346;2022-10-31T06:40:53;27.10;;;13.05;;
33902;SDS011;20194;50.950;5.346;2022-10-31T06:43:19;30.55;;;13.40;;
33902;SDS011;20194;50.950;5.346;2022-10-31T06:45:48;26.55;;;12.48;;
33902;SDS011;20194;50.950;5.346;2022-10-31T06:48:13;25.75;;;13.52;;
33902;SDS011;20194;50.950;5.346;2022-10-31T06:50:39;32.13;;;13.70;;
33902;SDS011;20194;50.950;5.346;2022-10-31T06:53:05;33.50;;;13.05;;
33902;SDS011;20194;50.950;5.346;2022-10-31T06:55:31;24.73;;;12.25;;
33902;SDS011;20194;50.950;5.346;2022-10-31T06:57:57;30.27;;;12.50;;
33902;SDS011;20194;50.950;5.346;2022-10-31T07:00:24;26.95;;;13.05;;
33902;SDS011;20194;50.950;5.346;2022-10-31T07:02:56;26.98;;;13.70;;
33902;SDS011;20194;50.950;5.346;2022-10-31T07:05:22;26.88;;;12.95;;
33902;SDS011;20194;50.950;5.346;2022-10-31T07:08:07;30.88;;;13.27;;
33902;SDS011;20194;50.950;5.346;2022-10-31T07:10:35;29.42;;;13.90;;
33902;SDS011;20194;50.950;5.346;2022-10-31T07:13:03;29.92;;;13.27;;
33902;SDS011;20194;50.950;5.346;2022-10-31T07:15:33;27.05;;;13.32;;
33902;SDS011;20194;50.950;5.346;2022-10-31T07:18:00;28.15;;;14.20;;
33902;SDS011;20194;50.950;5.346;2022-10-31T07:20:27;26.92;;;12.85;;
33902;SDS011;20194;50.950;5.346;2022-10-31T07:22:53;24.30;;;13.02;;
33902;SDS011;20194;50.950;5.346;2022-10-31T07:25:19;27.88;;;14.82;;
33902;SDS011;20194;50.950;5.346;2022-10-31T07:27:45;28.55;;;14.10;;
33902;SDS011;20194;50.950;5.346;2022-10-31T07:30:11;29.73;;;13.65;;
33902;SDS011;20194;50.950;5.346;2022-10-31T07:32:41;28.20;;;13.20;;
33902;SDS011;20194;50.950;5.346;2022-10-31T07:35:09;39.25;;;14.80;;
33902;SDS011;20194;50.950;5.346;2022-10-31T07:37:37;22.10;;;12.55;;
33902;SDS011;20194;50.950;5.346;2022-10-31T07:40:03;28.95;;;13.48;;
33902;SDS011;20194;50.950;5.346;2022-10-31T07:42:34;26.45;;;13.52;;
33902;SDS011;20194;50.950;5.346;2022-10-31T07:47:29;31.98;;;14.13;;
33902;SDS011;20194;50.950;5.346;2022-10-31T07:49:55;33.17;;;13.95;;
33902;SDS011;20194;50.950;5.346;2022-10-31T07:52:20;29.33;;;13.57;;
33902;SDS011;20194;50.950;5.346;2022-10-31T07:54:46;28.02;;;13.55;;
33902;SDS011;20194;50.950;5.346;2022-10-31T07:57:12;29.85;;;14.02;;
33902;SDS011;20194;50.950;5.346;2022-10-31T07:59:38;27.08;;;13.45;;
33902;SDS011;20194;50.950;5.346;2022-10-31T08:02:03;28.27;;;14.43;;
33902;SDS011;20194;50.950;5.346;2022-10-31T08:04:29;28.40;;;14.80;;
33902;SDS011;20194;50.950;5.346;2022-10-31T08:06:55;31.73;;;15.07;;
33902;SDS011;20194;50.950;5.346;2022-10-31T08:09:20;30.77;;;13.70;;
33902;SDS011;20194;50.950;5.346;2022-10-31T08:11:46;31.25;;;14.60;;
33902;SDS011;20194;50.950;5.346;2022-10-31T08:14:11;33.58;;;14.95;;
33902;SDS011;20194;50.950;5.346;2022-10-31T08:16:37;27.00;;;13.13;;
33902;SDS011;20194;50.950;5.346;2022-10-31T08:19:02;30.27;;;15.45;;
33902;SDS011;20194;50.950;5.346;2022-10-31T08:21:28;31.08;;;15.10;;
33902;SDS011;20194;50.950;5.346;2022-10-31T08:23:54;35.17;;;14.95;;
33902;SDS011;20194;50.950;5.346;2022-10-31T08:26:19;25.38;;;14.13;;
33902;SDS011;20194;50.950;5.346;2022-10-31T08:28:45;28.17;;;15.25;;
33902;SDS011;20194;50.950;5.346;2022-10-31T08:31:11;35.63;;;15.10;;
33902;SDS011;20194;50.950;5.346;2022-10-31T08:33:37;31.17;;;13.52;;
33902;SDS011;20194;50.950;5.346;2022-10-31T08:36:02;33.78;;;15.40;;
33902;SDS011;20194;50.950;5.346;2022-10-31T08:38:28;30.45;;;14.50;;
33902;SDS011;20194;50.950;5.346;2022-10-31T08:40:54;39.92;;;15.75;;
33902;SDS011;20194;50.950;5.346;2022-10-31T08:43:20;34.80;;;18.23;;
33902;SDS011;20194;50.950;5.346;2022-10-31T08:45:47;38.13;;;17.08;;
33902;SDS011;20194;50.950;5.346;2022-10-31T08:48:15;37.05;;;16.60;;
33902;SDS011;20194;50.950;5.346;2022-10-31T08:51:03;43.20;;;20.42;;
33902;SDS011;20194;50.950;5.346;2022-10-31T08:53:29;43.85;;;20.58;;
33902;SDS011;20194;50.950;5.346;2022-10-31T08:55:55;40.97;;;19.33;;
33902;SDS011;20194;50.950;5.346;2022-10-31T08:58:21;38.20;;;17.55;;
33902;SDS011;20194;50.950;5.346;2022-10-31T09:00:49;41.58;;;20.20;;
33902;SDS011;20194;50.950;5.346;2022-10-31T09:03:17;42.83;;;19.80;;
33902;SDS011;20194;50.950;5.346;2022-10-31T09:05:45;38.70;;;19.95;;
33902;SDS011;20194;50.950;5.346;2022-10-31T09:08:11;46.35;;;20.63;;
33902;SDS011;20194;50.950;5.346;2022-10-31T09:10:37;37.70;;;19.10;;
33902;SDS011;20194;50.950;5.346;2022-10-31T09:13:05;36.78;;;19.63;;
33902;SDS011;20194;50.950;5.346;2022-10-31T09:15:39;44.35;;;19.80;;
33902;SDS011;20194;50.950;5.346;2022-10-31T09:18:08;46.78;;;19.40;;
33902;SDS011;20194;50.950;5.346;2022-10-31T09:20:34;37.45;;;19.08;;
33902;SDS011;20194;50.950;5.346;2022-10-31T09:23:05;47.15;;;19.70;;
33902;SDS011;20194;50.950;5.346;2022-10-31T09:25:32;45.95;;;19.23;;
33902;SDS011;20194;50.950;5.346;2022-10-31T09:28:01;45.58;;;20.92;;
33902;SDS011;20194;50.950;5.346;2022-10-31T09:30:28;41.70;;;19.80;;
33902;SDS011;20194;50.950;5.346;2022-10-31T09:32:57;41.95;;;19.80;;
33902;SDS011;20194;50.950;5.346;2022-10-31T09:35:23;53.03;;;21.92;;
33902;SDS011;20194;50.950;5.346;2022-10-31T09:38:02;44.70;;;20.98;;
33902;SDS011;20194;50.950;5.346;2022-10-31T09:40:32;40.10;;;19.60;;
33902;SDS011;20194;50.950;5.346;2022-10-31T09:45:56;50.72;;;21.38;;
33902;SDS011;20194;50.950;5.346;2022-10-31T09:48:27;36.97;;;18.83;;
33902;SDS011;20194;50.950;5.346;2022-10-31T09:51:03;43.50;;;21.73;;
33902;SDS011;20194;50.950;5.346;2022-10-31T09:56:15;38.85;;;20.95;;
33902;SDS011;20194;50.950;5.346;2022-10-31T09:58:45;42.17;;;20.15;;
33902;SDS011;20194;50.950;5.346;2022-10-31T10:02:14;46.00;;;21.25;;
33902;SDS011;20194;50.950;5.346;2022-10-31T10:04:26;33.50;;;18.83;;
33902;SDS011;20194;50.950;5.346;2022-10-31T10:06:53;34.80;;;17.40;;
33902;SDS011;20194;50.950;5.346;2022-10-31T10:09:20;41.63;;;20.73;;
33902;SDS011;20194;50.950;5.346;2022-10-31T10:12:12;42.80;;;18.58;;
33902;SDS011;20194;50.950;5.346;2022-10-31T10:31:11;35.40;;;16.70;;
33902;SDS011;20194;50.950;5.346;2022-10-31T10:39:20;38.65;;;17.92;;
33902;SDS011;20194;50.950;5.346;2022-10-31T10:41:54;31.05;;;14.85;;
33902;SDS011;20194;50.950;5.346;2022-10-31T10:44:43;37.60;;;15.82;;
33902;SDS011;20194;50.950;5.346;2022-10-31T10:47:52;38.25;;;16.38;;
33902;SDS011;20194;50.950;5.346;2022-10-31T10:50:31;36.13;;;16.77;;
33902;SDS011;20194;50.950;5.346;2022-10-31T10:55:58;39.30;;;15.32;;
33902;SDS011;20194;50.950;5.346;2022-10-31T10:58:47;37.40;;;17.70;;
33902;SDS011;20194;50.950;5.346;2022-10-31T11:01:13;35.03;;;16.48;;
33902;SDS011;20194;50.950;5.346;2022-10-31T11:03:40;36.40;;;16.23;;
33902;SDS011;20194;50.950;5.346;2022-10-31T11:06:20;35.88;;;17.55;;
33902;SDS011;20194;50.950;5.346;2022-10-31T11:08:50;41.78;;;16.35;;
33902;SDS011;20194;50.950;5.346;2022-10-31T11:13:43;37.67;;;16.92;;
33902;SDS011;20194;50.950;5.346;2022-10-31T11:16:12;31.92;;;14.88;;
33902;SDS011;20194;50.950;5.346;2022-10-31T11:18:44;46.30;;;14.68;;
33902;SDS011;20194;50.950;5.346;2022-10-31T11:26:33;31.98;;;14.90;;
33902;SDS011;20194;50.950;5.346;2022-10-31T11:29:00;28.27;;;13.65;;
33902;SDS011;20194;50.950;5.346;2022-10-31T11:31:28;34.47;;;13.40;;
33902;SDS011;20194;50.950;5.346;2022-10-31T11:33:59;29.88;;;12.65;;
33902;SDS011;20194;50.950;5.346;2022-10-31T11:36:29;27.08;;;11.77;;
33902;SDS011;20194;50.950;5.346;2022-10-31T11:38:57;21.95;;;11.02;;
33902;SDS011;20194;50.950;5.346;2022-10-31T11:44:03;29.25;;;11.73;;
33902;SDS011;20194;50.950;5.346;2022-10-31T11:49:33;29.52;;;10.02;;
33902;SDS011;20194;50.950;5.346;2022-10-31T11:51:59;24.52;;;11.30;;
33902;SDS011;20194;50.950;5.346;2022-10-31T11:54:32;30.45;;;10.85;;
33902;SDS011;20194;50.950;5.346;2022-10-31T11:59:57;23.45;;;9.95;;
33902;SDS011;20194;50.950;5.346;2022-10-31T12:02:25;27.67;;;10.20;;
33902;SDS011;20194;50.950;5.346;2022-10-31T12:05:04;26.70;;;10.43;;
33902;SDS011;20194;50.950;5.346;2022-10-31T12:07:36;27.65;;;10.77;;
33902;SDS011;20194;50.950;5.346;2022-10-31T12:10:05;28.08;;;10.13;;
33902;SDS011;20194;50.950;5.346;2022-10-31T12:13:11;24.60;;;9.23;;
33902;SDS011;20194;50.950;5.346;2022-10-31T12:16:00;19.85;;;9.68;;
33902;SDS011;20194;50.950;5.346;2022-10-31T12:21:33;18.77;;;9.27;;
33902;SDS011;20194;50.950;5.346;2022-10-31T12:32:15;23.65;;;9.13;;
33902;SDS011;20194;50.950;5.346;2022-10-31T12:58:43;25.42;;;9.90;;
33902;SDS011;20194;50.950;5.346;2022-10-31T13:01:36;20.10;;;10.02;;
33902;SDS011;20194;50.950;5.346;2022-10-31T13:06:52;23.48;;;9.82;;
33902;SDS011;20194;50.950;5.346;2022-10-31T13:09:29;21.48;;;9.15;;
33902;SDS011;20194;50.950;5.346;2022-10-31T13:12:04;21.02;;;10.43;;
33902;SDS011;20194;50.950;5.346;2022-10-31T13:14:36;21.58;;;10.77;;
33902;SDS011;20194;50.950;5.346;2022-10-31T13:17:04;30.52;;;10.05;;
33902;SDS011;20194;50.950;5.346;2022-10-31T13:19:33;27.77;;;11.38;;
33902;SDS011;20194;50.950;5.346;2022-10-31T13:27:44;23.77;;;11.27;;
33902;SDS011;20194;50.950;5.346;2022-10-31T13:30:17;27.58;;;11.27;;
33902;SDS011;20194;50.950;5.346;2022-10-31T13:35:33;23.73;;;11.30;;
33902;SDS011;20194;50.950;5.346;2022-10-31T13:40:50;34.85;;;12.85;;
33902;SDS011;20194;50.950;5.346;2022-10-31T13:48:50;25.42;;;12.00;;
33902;SDS011;20194;50.950;5.346;2022-10-31T13:51:23;23.33;;;10.23;;
33902;SDS011;20194;50.950;5.346;2022-10-31T13:56:32;37.40;;;12.38;;
33902;SDS011;20194;50.950;5.346;2022-10-31T13:59:19;36.60;;;11.52;;
33902;SDS011;20194;50.950;5.346;2022-10-31T14:04:38;30.52;;;12.98;;
33902;SDS011;20194;50.950;5.346;2022-10-31T14:07:12;32.78;;;12.10;;
33902;SDS011;20194;50.950;5.346;2022-10-31T14:12:23;30.38;;;11.93;;
33902;SDS011;20194;50.950;5.346;2022-10-31T14:14:51;27.02;;;11.57;;
33902;SDS011;20194;50.950;5.346;2022-10-31T14:17:25;25.33;;;11.32;;
33902;SDS011;20194;50.950;5.346;2022-10-31T14:20:02;23.63;;;11.48;;
33902;SDS011;20194;50.950;5.346;2022-10-31T14:22:46;33.28;;;12.15;;
33902;SDS011;20194;50.950;5.346;2022-10-31T14:25:25;27.02;;;12.18;;
33902;SDS011;20194;50.950;5.346;2022-10-31T14:27:56;30.45;;;11.30;;
33902;SDS011;20194;50.950;5.346;2022-10-31T14:30:24;31.98;;;12.45;;
33902;SDS011;20194;50.950;5.346;2022-10-31T14:32:58;40.17;;;12.45;;
33902;SDS011;20194;50.950;5.346;2022-10-31T14:35:36;25.00;;;11.45;;
33902;SDS011;20194;50.950;5.346;2022-10-31T14:38:40;24.42;;;10.23;;
33902;SDS011;20194;50.950;5.346;2022-10-31T14:41:18;20.33;;;10.10;;
33902;SDS011;20194;50.950;5.346;2022-10-31T14:47:20;28.75;;;10.70;;
33902;SDS011;20194;50.950;5.346;2022-10-31T14:52:28;25.30;;;11.00;;
33902;SDS011;20194;50.950;5.346;2022-10-31T14:54:54;23.63;;;10.35;;
33902;SDS011;20194;50.950;5.346;2022-10-31T14:57:25;33.47;;;10.32;;
33902;SDS011;20194;50.950;5.346;2022-10-31T14:59:57;16.27;;;9.00;;
33902;SDS011;20194;50.950;5.346;2022-10-31T15:02:28;25.88;;;10.05;;
33902;SDS011;20194;50.950;5.346;2022-10-31T15:05:01;22.45;;;10.05;;
33902;SDS011;20194;50.950;5.346;2022-10-31T15:07:32;29.13;;;10.18;;
33902;SDS011;20194;50.950;5.346;2022-10-31T15:10:03;18.60;;;8.90;;
33902;SDS011;20194;50.950;5.346;2022-10-31T15:12:32;16.88;;;8.98;;
33902;SDS011;20194;50.950;5.346;2022-10-31T15:17:51;28.92;;;9.95;;
33902;SDS011;20194;50.950;5.346;2022-10-31T15:20:24;20.48;;;9.73;;
33902;SDS011;20194;50.950;5.346;2022-10-31T15:22:52;26.65;;;9.32;;
33902;SDS011;20194;50.950;5.346;2022-10-31T15:25:24;29.08;;;9.88;;
33902;SDS011;20194;50.950;5.346;2022-10-31T15:27:58;29.08;;;9.10;;
33902;SDS011;20194;50.950;5.346;2022-10-31T15:30:25;24.83;;;9.77;;
33902;SDS011;20194;50.950;5.346;2022-10-31T15:32:55;18.85;;;10.05;;
33902;SDS011;20194;50.950;5.346;2022-10-31T15:35:24;23.23;;;9.52;;
33902;SDS011;20194;50.950;5.346;2022-10-31T15:37:52;30.23;;;9.90;;
33902;SDS011;20194;50.950;5.346;2022-10-31T15:40:19;26.98;;;10.40;;
33902;SDS011;20194;50.950;5.346;2022-10-31T15:42:53;26.70;;;10.48;;
33902;SDS011;20194;50.950;5.346;2022-10-31T15:45:26;24.23;;;9.52;;
33902;SDS011;20194;50.950;5.346;2022-10-31T15:47:54;27.98;;;10.15;;
33902;SDS011;20194;50.950;5.346;2022-10-31T15:52:57;29.30;;;9.50;;
33902;SDS011;20194;50.950;5.346;2022-10-31T15:55:25;24.98;;;9.98;;
33902;SDS011;20194;50.950;5.346;2022-10-31T15:57:56;22.02;;;8.23;;
33902;SDS011;20194;50.950;5.346;2022-10-31T16:00:29;28.60;;;8.00;;
33902;SDS011;20194;50.950;5.346;2022-10-31T16:05:38;26.30;;;9.13;;
33902;SDS011;20194;50.950;5.346;2022-10-31T16:08:26;25.70;;;8.88;;
33902;SDS011;20194;50.950;5.346;2022-10-31T16:13:33;20.80;;;9.68;;
33902;SDS011;20194;50.950;5.346;2022-10-31T16:16:03;14.98;;;8.13;;
33902;SDS011;20194;50.950;5.346;2022-10-31T16:18:37;22.45;;;8.05;;
33902;SDS011;20194;50.950;5.346;2022-10-31T16:21:05;16.40;;;7.35;;
33902;SDS011;20194;50.950;5.346;2022-10-31T16:23:32;17.35;;;6.70;;
33902;SDS011;20194;50.950;5.346;2022-10-31T16:25:59;18.35;;;5.80;;
33902;SDS011;20194;50.950;5.346;2022-10-31T16:28:25;13.50;;;5.88;;
33902;SDS011;20194;50.950;5.346;2022-10-31T16:30:53;14.15;;;5.30;;
33902;SDS011;20194;50.950;5.346;2022-10-31T16:33:36;17.35;;;4.47;;
33902;SDS011;20194;50.950;5.346;2022-10-31T16:38:57;13.57;;;3.88;;
33902;SDS011;20194;50.950;5.346;2022-10-31T16:41:23;11.52;;;4.22;;
33902;SDS011;20194;50.950;5.346;2022-10-31T16:43:50;13.00;;;4.35;;
33902;SDS011;20194;50.950;5.346;2022-10-31T16:46:22;13.50;;;4.65;;
33902;SDS011;20194;50.950;5.346;2022-10-31T16:48:52;17.88;;;4.85;;
33902;SDS011;20194;50.950;5.346;2022-10-31T16:51:18;11.07;;;4.80;;
33902;SDS011;20194;50.950;5.346;2022-10-31T16:53:44;13.48;;;4.60;;
33902;SDS011;20194;50.950;5.346;2022-10-31T16:56:12;10.57;;;4.60;;
33902;SDS011;20194;50.950;5.346;2022-10-31T16:58:45;15.60;;;5.13;;
33902;SDS011;20194;50.950;5.346;2022-10-31T17:01:11;9.20;;;4.95;;
33902;SDS011;20194;50.950;5.346;2022-10-31T17:03:38;15.23;;;5.20;;
33902;SDS011;20194;50.950;5.346;2022-10-31T17:06:04;8.98;;;3.97;;
33902;SDS011;20194;50.950;5.346;2022-10-31T17:08:29;12.00;;;4.03;;
33902;SDS011;20194;50.950;5.346;2022-10-31T17:10:55;22.23;;;4.70;;
33902;SDS011;20194;50.950;5.346;2022-10-31T17:13:23;10.70;;;4.28;;
33902;SDS011;20194;50.950;5.346;2022-10-31T17:15:55;14.93;;;5.28;;
33902;SDS011;20194;50.950;5.346;2022-10-31T17:18:22;12.23;;;5.38;;
33902;SDS011;20194;50.950;5.346;2022-10-31T17:20:48;11.73;;;5.03;;
33902;SDS011;20194;50.950;5.346;2022-10-31T17:23:15;14.20;;;5.13;;
33902;SDS011;20194;50.950;5.346;2022-10-31T17:25:41;16.23;;;5.85;;
33902;SDS011;20194;50.950;5.346;2022-10-31T17:28:11;11.60;;;4.85;;
33902;SDS011;20194;50.950;5.346;2022-10-31T17:30:38;19.42;;;5.68;;